Ypsilanti, MI

11:47 PM EDT on July 27, 2016 (GMT -0400)
Ypsilanti Twp - East | | Change Station

Elev 764 ft 42.25 °N, 83.59 °W | Updated 2 minutes ago

Partly Cloudy
Partly Cloudy
74.0 °F
Feels Like 74 °F
N
0.0
Wind Variable Wind from North

Today
High -- | Low -- °F
--% Chance of Precip.
Yesterday
High -- | Low -- °F
Precip. -- in
Pressure 29.93 in
Visibility 10.0 miles
Clouds Few 6000 ft
Heat Index 74 °F
Dew Point 68 °F
Humidity 83%
Rainfall 0.00 in
Snow Depth Not available.
6:22 AM 8:58 PM
Last Quarter, 36% visible
METAR KYIP 280253Z AUTO 33004KT 10SM FEW060 25/18 A2996 RMK AO2 SLP135 T02500183 51013 TSNO
Pressure 29.93 in
Visibility 10.0 miles
Clouds Few 6000 ft
Heat Index 74 °F
Dew Point 68 °F
Humidity 83%
Rainfall 0.00 in
Snow Depth Not available.
6:22 AM 8:58 PM
Last Quarter, 36% visible
METAR KYIP 280253Z AUTO 33004KT 10SM FEW060 25/18 A2996 RMK AO2 SLP135 T02500183 51013 TSNO

10-Day Weather Forecast

Almanac

Astronomy

Jul. 27, 2016 Rise Set
Actual Time
Civil Twilight
Nautical Twilight
Astronomical Twilight
Moon
Length of Visible Light
Length of Day
Tomorrow will be .
, % of the Moon is Illuminated

Today's Extremes

State Highs State Lows

Community

WunderPhotos

Upload Photos

1,928,037 photos uploaded!

WunderBlog® & News

Nearby

Air Quality

  Air Quality AQ Index Pollutant
Not available.

Snow Depth

Station Depth Elevation

Earthquake Activity

City Distance Mag. Time & Date
Minimum magnitude displayed is 2.5.

Coastal Water Temperatures

Place Temperature

Stations

Nearby Weather Stations

Station Location Temp. Windchill Dew Point Humidity Wind Precip. Elev Updated Type
                   

Watches & Warnings

There are currently no watches in effect.